»·PEaware :: N509SP KBUR-KSBA

N509SP :: KBUR-KSBA

FLIGHT INFORMATION

Flight Status: Arrived
Operator: Privately registered:
United States
More flights under this callsign
Pilot: Erik B. (9150)
Aircraft: CESSNA 172 SKYHAWK
(C172)
More flights by this aircraft type
Origin: KBUR Bob Hope-Burbank
United States
Destination: KSBA Santa Barbara Mun
United States
More flights between these airports :: More routes between these airports
Route: + FIM HENER DEANO KWANG
File this flight plan on PilotEdge
Remarks: TEC route BURP39
Altitude:
(Current/Filed)
6,000ft
Speed:
(Current/Filed)
100kts
Departed: 09-Oct-18 03:00 PM
Arrived: 09-Oct-18 03:49 PM
Distance/Time
Traveled:
74nm/0:49
Distance/Time
To Go:
Arrived

Flight Plot

Page will automatically refresh every two minutes.

Flight plan parsing failed; only flown route is shown


Map Options




Map Legend


Flown Route
Filed Route
Departure Airport
Arrival Airport
Navaid (VOR, NDB)
Fix

Horizontal Profiles

Position Reports

Time Latitude Longitude Heading Altitude Ground
Speed
09-Oct-18 14:36 34.200203 -118.358746 263 721ft 0kts
09-Oct-18 14:37 34.200203 -118.358746 263 721ft 0kts
09-Oct-18 14:38 34.200203 -118.358746 263 721ft 0kts
09-Oct-18 14:39 34.200203 -118.358746 263 721ft 0kts
09-Oct-18 14:40 34.200203 -118.358746 263 721ft 0kts
09-Oct-18 14:41 34.200203 -118.358746 263 721ft 0kts
09-Oct-18 14:42 34.200203 -118.358746 263 721ft 0kts
09-Oct-18 14:43 34.200203 -118.358746 263 721ft 0kts
09-Oct-18 14:44 34.200203 -118.358746 263 721ft 0kts
09-Oct-18 14:45 34.200203 -118.358746 263 721ft 0kts
09-Oct-18 14:46 34.200203 -118.358746 263 721ft 0kts
09-Oct-18 14:47 34.200203 -118.358746 263 721ft 0kts
09-Oct-18 14:48 34.200203 -118.358746 263 721ft 0kts
09-Oct-18 14:49 34.200203 -118.358746 263 721ft 0kts
09-Oct-18 14:50 34.200203 -118.358746 263 721ft 0kts
09-Oct-18 14:51 34.200203 -118.358746 263 721ft 0kts
09-Oct-18 14:52 34.200203 -118.358746 263 721ft 0kts
09-Oct-18 14:53 34.200199 -118.358779 262 721ft 2kts
09-Oct-18 14:54 34.199090 -118.360286 183 719ft 6kts
09-Oct-18 14:55 34.199004 -118.363691 271 724ft 15kts
09-Oct-18 14:56 34.199143 -118.368021 271 727ft 9kts
09-Oct-18 14:57 34.198759 -118.369093 185 727ft 0kts
09-Oct-18 14:58 34.198759 -118.369093 185 727ft 0kts
09-Oct-18 14:59 34.198759 -118.369093 185 727ft 0kts
09-Oct-18 15:00 34.198759 -118.369093 185 727ft 0kts
09-Oct-18 15:01 34.198043 -118.368980 159 726ft 8kts
09-Oct-18 15:02 34.197693 -118.352414 94 929ft 80kts
09-Oct-18 15:03 34.211082 -118.351976 306 1442ft 100kts
09-Oct-18 15:04 34.226618 -118.379682 299 2007ft 101kts
09-Oct-18 15:05 34.222693 -118.409534 243 2277ft 115kts
09-Oct-18 15:06 34.238207 -118.440611 320 2710ft 117kts
09-Oct-18 15:07 34.249237 -118.476489 286 3285ft 105kts
09-Oct-18 15:08 34.253587 -118.511390 282 3786ft 104kts
09-Oct-18 15:09 34.260772 -118.544275 288 4275ft 102kts
09-Oct-18 15:10 34.268113 -118.577327 289 4670ft 109kts
09-Oct-18 15:11 34.278590 -118.613122 291 4499ft 108kts
09-Oct-18 15:12 34.288309 -118.645525 289 4504ft 98kts
09-Oct-18 15:13 34.297428 -118.675986 288 4509ft 99kts
09-Oct-18 15:14 34.306634 -118.706830 287 4775ft 93kts
09-Oct-18 15:15 34.315211 -118.735650 287 5272ft 89kts
09-Oct-18 15:16 34.323560 -118.763577 287 5772ft 86kts
09-Oct-18 15:17 34.331781 -118.791088 287 6198ft 91kts
09-Oct-18 15:18 34.340773 -118.821065 288 6482ft 98kts
09-Oct-18 15:19 34.350402 -118.853071 288 6504ft 103kts
09-Oct-18 15:20 34.358962 -118.885944 275 6504ft 102kts
09-Oct-18 15:21 34.361697 -118.920189 275 6503ft 102kts
09-Oct-18 15:22 34.364301 -118.953919 275 6503ft 101kts
09-Oct-18 15:23 34.366899 -118.987796 275 6503ft 101kts
09-Oct-18 15:24 34.369100 -119.021589 274 6503ft 100kts
09-Oct-18 15:25 34.370570 -119.055426 272 6503ft 100kts
09-Oct-18 15:26 34.371300 -119.089201 271 6503ft 100kts
09-Oct-18 15:27 34.374956 -119.119477 284 6107ft 89kts
09-Oct-18 15:28 34.379820 -119.148863 278 5605ft 89kts
09-Oct-18 15:29 34.383120 -119.178856 276 5101ft 90kts
09-Oct-18 15:30 34.385832 -119.209299 274 4599ft 91kts
09-Oct-18 15:31 34.388295 -119.239846 273 4103ft 93kts
09-Oct-18 15:32 34.389428 -119.271128 270 3600ft 93kts
09-Oct-18 15:33 34.390801 -119.302685 272 3221ft 95kts
09-Oct-18 15:34 34.393187 -119.336323 273 2920ft 106kts
09-Oct-18 15:35 34.396211 -119.369315 281 3019ft 95kts
09-Oct-18 15:36 34.398113 -119.401856 265 3000ft 101kts
09-Oct-18 15:37 34.399202 -119.435951 271 3000ft 100kts
09-Oct-18 15:38 34.404044 -119.468351 289 3002ft 102kts
09-Oct-18 15:39 34.414846 -119.498936 289 2724ft 96kts
09-Oct-18 15:40 34.425295 -119.528393 289 2356ft 92kts
09-Oct-18 15:41 34.434718 -119.561797 278 2356ft 114kts
09-Oct-18 15:42 34.440642 -119.599697 278 2355ft 117kts
09-Oct-18 15:43 34.446586 -119.636743 278 2166ft 104kts
09-Oct-18 15:44 34.450996 -119.669867 269 1664ft 96kts
09-Oct-18 15:45 34.451516 -119.702688 274 1622ft 106kts
09-Oct-18 15:46 34.456198 -119.739012 267 1590ft 106kts
09-Oct-18 15:47 34.451334 -119.773115 249 1134ft 103kts
09-Oct-18 15:48 34.448460 -119.803513 260 814ft 78kts
09-Oct-18 15:49 34.446043 -119.828605 256 562ft 70kts
09-Oct-18 15:50 34.434631 -119.841415 175 255ft 62kts
09-Oct-18 15:51 34.424569 -119.838124 119 13ft 4kts
09-Oct-18 15:52 34.422675 -119.836892 103 12ft 12kts
09-Oct-18 15:53 34.423149 -119.835850 266 10ft 0kts

Navigation Log

Ident Type
Flight plan parsing failed, navigation log unavailable